createdAt,value
2022-10-01T08:20:32.203Z,40.60
2022-10-01T08:23:08.204Z,37.80
2022-10-01T08:25:37.975Z,37.70
2022-10-01T08:28:08.329Z,37.20
2022-10-01T08:30:38.324Z,36.60
2022-10-01T08:33:07.809Z,35.90
2022-10-01T08:35:39.427Z,35.40
2022-10-01T08:38:09.029Z,35.10
2022-10-01T08:40:43.368Z,35.00
2022-10-01T08:43:23.876Z,34.80
2022-10-01T08:45:54.152Z,34.30
2022-10-01T08:48:32.204Z,34.00
2022-10-01T08:51:04.296Z,33.40
2022-10-01T08:53:38.162Z,33.00
2022-10-01T08:56:07.657Z,32.40
2022-10-01T08:58:41.745Z,32.10
2022-10-01T09:01:12.119Z,31.90
2022-10-01T09:03:41.709Z,31.90
2022-10-01T09:06:11.242Z,31.60
2022-10-01T09:09:00.780Z,30.90
2022-10-01T09:11:44.150Z,29.70
2022-10-01T09:14:19.382Z,29.20
2022-10-01T09:17:07.360Z,28.80
2022-10-01T09:19:38.105Z,28.60
2022-10-01T09:22:21.291Z,28.00
2022-10-01T09:25:00.122Z,28.00
2022-10-01T09:27:29.720Z,28.50
2022-10-01T09:30:17.323Z,28.80
2022-10-01T09:32:48.491Z,29.10
2022-10-01T09:35:21.024Z,29.40
2022-10-01T09:37:53.115Z,29.50
2022-10-01T09:40:29.442Z,29.80
2022-10-01T09:42:58.979Z,30.00
2022-10-01T09:45:28.634Z,30.30
2022-10-01T09:47:59.202Z,30.60
2022-10-01T09:50:32.919Z,31.00
2022-10-01T09:53:02.414Z,31.20
2022-10-01T09:55:37.880Z,31.50
2022-10-01T09:58:11.365Z,31.70
2022-10-01T10:00:42.157Z,31.90
2022-10-01T10:03:11.681Z,32.20
2022-10-01T10:05:42.002Z,32.30
2022-10-01T10:08:16.059Z,32.50
2022-10-01T10:10:52.514Z,32.80
2022-10-01T10:13:25.810Z,32.90
2022-10-01T10:15:59.542Z,33.10
2022-10-01T10:21:54.458Z,35.30
2022-10-01T10:24:34.870Z,36.70
2022-10-01T10:27:06.730Z,35.20
2022-10-01T10:29:37.870Z,36.60
2022-10-01T10:32:25.559Z,37.20
2022-10-01T10:35:03.174Z,38.30
2022-10-01T10:37:36.131Z,38.60
2022-10-01T10:40:09.143Z,38.10
2022-10-01T10:42:40.063Z,37.90
2022-10-01T10:45:17.660Z,37.50
2022-10-01T10:47:49.532Z,37.70
2022-10-01T10:50:32.391Z,37.50
2022-10-01T10:53:05.399Z,37.60
2022-10-01T10:55:35.301Z,37.30
2022-10-01T10:58:16.141Z,37.40
2022-10-01T11:00:51.262Z,37.40
2022-10-01T11:03:25.987Z,37.40
2022-10-01T11:05:57.481Z,37.40
2022-10-01T11:08:29.013Z,37.40
2022-10-01T11:11:14.745Z,37.50
2022-10-01T11:13:59.510Z,37.40
2022-10-01T11:16:32.738Z,37.50
2022-10-01T11:19:12.457Z,37.50
2022-10-01T11:22:00.674Z,37.60
2022-10-01T11:24:39.460Z,37.80
2022-10-01T11:27:15.337Z,37.80
2022-10-01T11:30:08.502Z,37.80
2022-10-01T11:32:37.930Z,37.90
2022-10-01T11:35:45.324Z,37.90
2022-10-01T11:38:24.899Z,38.10
2022-10-01T11:41:14.569Z,38.10
2022-10-01T11:44:08.788Z,38.10
2022-10-01T11:47:00.185Z,38.30
2022-10-01T11:49:56.358Z,38.30
2022-10-01T11:52:46.172Z,38.50
2022-10-01T11:56:00.603Z,38.40
2022-10-01T11:58:55.214Z,38.50
2022-10-01T12:01:25.294Z,38.50
2022-10-01T12:03:55.363Z,38.60
2022-10-01T12:06:30.493Z,38.90
2022-10-01T12:09:22.853Z,39.60
2022-10-01T12:12:02.514Z,39.60
2022-10-01T12:14:46.889Z,39.90
2022-10-01T12:17:39.766Z,39.80
2022-10-01T12:20:23.552Z,40.50
2022-10-01T12:22:53.486Z,40.20
2022-10-01T12:25:24.754Z,40.40
2022-10-01T12:28:13.543Z,40.40
2022-10-01T12:31:27.864Z,40.50
2022-10-01T12:34:19.401Z,40.70
2022-10-01T12:37:11.450Z,40.60
2022-10-01T12:39:56.797Z,40.50
2022-10-01T12:42:49.545Z,40.50
2022-10-01T12:45:44.978Z,40.40
2022-10-01T12:48:18.213Z,40.30
2022-10-01T12:51:11.976Z,40.40
2022-10-01T12:54:01.616Z,40.40
2022-10-01T12:56:39.077Z,40.40
2022-10-01T12:59:27.472Z,40.40
2022-10-01T13:02:12.642Z,40.50
2022-10-01T13:05:04.561Z,40.40
2022-10-01T13:08:05.438Z,40.30
2022-10-01T13:10:52.999Z,40.30
2022-10-01T13:13:34.208Z,40.40
2022-10-01T13:16:19.586Z,40.30
2022-10-01T13:18:55.651Z,40.40
2022-10-01T13:21:41.118Z,40.50
2022-10-01T13:24:38.421Z,40.50
2022-10-01T13:27:08.267Z,40.50
2022-10-01T13:30:01.112Z,40.50
2022-10-01T13:32:38.502Z,40.60
2022-10-01T13:35:35.200Z,40.70
2022-10-01T13:38:31.390Z,40.80
2022-10-01T13:41:17.795Z,40.80
2022-10-01T13:43:59.554Z,40.80
2022-10-01T13:46:32.436Z,41.00
2022-10-01T13:49:09.188Z,40.80
2022-10-01T13:51:39.319Z,41.10
2022-10-01T13:54:15.845Z,41.20
2022-10-01T13:56:48.492Z,41.60
2022-10-01T13:59:33.964Z,41.60
2022-10-01T14:02:04.282Z,41.80
2022-10-01T14:04:41.681Z,41.90
2022-10-01T14:07:29.564Z,41.80
2022-10-01T14:10:00.269Z,41.70
2022-10-01T14:12:55.242Z,42.20
2022-10-01T14:15:46.101Z,42.20
2022-10-01T14:18:22.866Z,42.10
2022-10-01T14:21:22.641Z,42.00
2022-10-01T14:24:16.951Z,42.00
2022-10-01T14:27:24.347Z,42.00
2022-10-01T14:30:15.828Z,42.00
2022-10-01T14:33:13.441Z,41.90
2022-10-01T14:35:51.390Z,42.00
2022-10-01T14:38:22.333Z,42.10
2022-10-01T14:40:52.525Z,42.00
2022-10-01T14:43:30.598Z,41.80
2022-10-01T14:46:05.319Z,41.80
2022-10-01T14:48:36.553Z,41.90
2022-10-01T14:51:07.886Z,41.70
2022-10-01T14:53:38.858Z,41.60
2022-10-01T14:56:11.556Z,41.80
2022-10-01T14:58:45.855Z,41.60
2022-10-01T15:01:23.208Z,41.60
2022-10-01T15:03:53.968Z,41.70
2022-10-01T15:06:26.126Z,41.70
2022-10-01T15:08:56.552Z,41.60
2022-10-01T15:11:30.777Z,41.50
2022-10-01T15:14:08.275Z,41.60
2022-10-01T15:16:38.533Z,41.60
2022-10-01T15:19:10.640Z,41.50
2022-10-01T15:21:51.682Z,41.50
2022-10-01T15:24:26.979Z,41.60
2022-10-01T15:26:58.237Z,41.70
2022-10-01T15:29:28.348Z,41.60
2022-10-01T15:31:58.647Z,41.60
2022-10-01T15:34:28.711Z,41.50
2022-10-01T15:36:58.662Z,41.60
2022-10-01T15:39:41.271Z,41.40
2022-10-01T15:42:26.845Z,41.40
2022-10-01T15:45:14.235Z,41.50
2022-10-01T15:47:52.903Z,41.60
2022-10-01T15:50:47.109Z,41.50
2022-10-01T15:53:19.555Z,41.50
2022-10-01T15:55:50.808Z,41.60
2022-10-01T15:58:31.434Z,41.50
2022-10-01T16:01:18.786Z,41.50
2022-10-01T16:03:58.932Z,41.30
2022-10-01T16:06:54.936Z,41.30
2022-10-01T16:09:32.623Z,41.40
2022-10-01T16:12:25.161Z,41.30
2022-10-01T16:15:02.427Z,41.40
2022-10-01T16:17:38.533Z,41.30
2022-10-01T16:20:17.407Z,41.30
2022-10-01T16:22:47.460Z,41.10
2022-10-01T16:25:24.919Z,41.30
2022-10-01T16:28:03.426Z,41.30
2022-10-01T16:30:34.752Z,41.40
2022-10-01T16:33:07.952Z,41.30
2022-10-01T16:35:39.812Z,41.50
2022-10-01T16:38:10.803Z,41.30
2022-10-01T16:40:44.820Z,41.30
2022-10-01T16:43:26.508Z,41.30
2022-10-01T16:45:56.531Z,41.30
2022-10-01T16:48:26.625Z,41.30
2022-10-01T16:51:00.139Z,41.30
2022-10-01T16:53:30.766Z,41.30
2022-10-01T16:56:00.654Z,41.20
2022-10-01T16:58:30.589Z,41.30
2022-10-01T17:01:00.624Z,41.20
2022-10-01T17:03:30.580Z,41.20
2022-10-01T17:06:00.606Z,41.20
2022-10-01T17:08:30.726Z,41.20
2022-10-01T17:11:02.443Z,41.20
2022-10-01T17:13:35.267Z,41.10
2022-10-01T17:16:06.983Z,41.30
2022-10-01T17:18:36.979Z,41.10
2022-10-01T17:21:07.201Z,41.00
2022-10-01T17:23:37.943Z,41.10
2022-10-01T17:26:11.210Z,41.20
2022-10-01T17:28:41.226Z,41.10
2022-10-01T17:31:14.391Z,41.00
2022-10-01T17:33:47.580Z,41.00
2022-10-01T17:36:17.414Z,41.20
2022-10-01T17:38:47.607Z,41.00
2022-10-01T17:41:17.596Z,40.90
2022-10-01T17:43:47.490Z,41.00
2022-10-01T17:46:17.515Z,41.00
2022-10-01T17:48:50.250Z,41.00
2022-10-01T17:51:21.011Z,40.90
2022-10-01T17:53:51.026Z,40.80
2022-10-01T17:56:21.066Z,40.90
2022-10-01T17:58:50.990Z,40.90
2022-10-01T18:01:22.265Z,40.70
2022-10-01T18:04:01.420Z,40.60
2022-10-01T18:06:31.640Z,40.70
2022-10-01T18:09:01.545Z,40.80
2022-10-01T18:11:31.734Z,40.80
2022-10-01T18:14:01.774Z,40.70
2022-10-01T18:16:33.459Z,40.50
2022-10-01T18:21:54.224Z,40.50
2022-10-01T18:24:24.183Z,40.50
2022-10-01T18:26:54.252Z,40.50
2022-10-01T18:29:25.892Z,40.60
2022-10-01T18:32:03.482Z,41.00
2022-10-01T18:35:01.850Z,40.60
2022-10-01T18:37:40.071Z,40.40
2022-10-01T18:40:18.912Z,40.60
2022-10-01T18:43:19.862Z,40.50
2022-10-01T18:46:08.742Z,40.50
2022-10-01T18:48:43.419Z,40.50
2022-10-01T18:51:25.849Z,40.50
2022-10-01T18:54:07.840Z,40.40
2022-10-01T18:56:38.909Z,40.40
2022-10-01T18:59:22.126Z,40.50
2022-10-01T19:02:09.870Z,40.50
2022-10-01T19:04:54.489Z,40.50
2022-10-01T19:07:35.607Z,40.70
2022-10-01T19:11:01.219Z,40.40
2022-10-01T19:13:31.123Z,40.50
2022-10-01T19:16:37.925Z,40.40
2022-10-01T19:19:12.533Z,40.50
2022-10-01T19:21:50.406Z,40.30
2022-10-01T19:24:35.107Z,40.40
2022-10-01T19:27:24.994Z,40.40
2022-10-01T19:30:05.695Z,40.50
2022-10-01T19:32:43.732Z,40.30
2022-10-01T19:35:24.644Z,40.30
2022-10-01T19:37:59.494Z,40.40
2022-10-01T19:40:55.251Z,40.40
2022-10-01T19:43:43.450Z,40.90
2022-10-01T19:46:17.008Z,40.30
2022-10-01T19:49:07.590Z,40.40
2022-10-01T19:51:51.218Z,40.50
2022-10-01T19:54:22.482Z,40.50
2022-10-01T19:56:58.232Z,40.60
2022-10-01T19:59:28.756Z,40.60
2022-10-01T20:02:15.772Z,40.50
2022-10-01T20:04:52.981Z,40.60
2022-10-01T20:07:38.355Z,40.50
2022-10-01T20:10:23.125Z,40.50
2022-10-01T20:13:02.187Z,40.50
2022-10-01T20:15:38.877Z,40.60
2022-10-01T20:18:14.532Z,40.60
2022-10-01T20:21:08.944Z,40.60
2022-10-01T20:23:47.956Z,40.50
2022-10-01T20:26:45.520Z,40.80
2022-10-01T20:29:35.894Z,40.70
2022-10-01T20:32:07.781Z,40.70
2022-10-01T20:34:37.664Z,40.60
2022-10-01T20:37:36.003Z,40.60
2022-10-01T20:40:07.993Z,40.60
2022-10-01T20:42:40.347Z,40.50
2022-10-01T20:45:35.158Z,40.40
2022-10-01T20:48:13.864Z,40.50
2022-10-01T20:50:59.585Z,40.60
2022-10-01T20:53:46.735Z,40.60
2022-10-01T20:56:25.211Z,40.60
2022-10-01T20:58:58.535Z,40.60
2022-10-01T21:01:31.631Z,40.60
2022-10-01T21:04:07.853Z,40.60
2022-10-01T21:06:38.293Z,40.80
2022-10-01T21:09:46.682Z,40.50
2022-10-01T21:12:26.068Z,40.50
2022-10-01T21:14:57.143Z,40.70
2022-10-01T21:17:36.458Z,40.70
2022-10-01T21:20:11.756Z,40.60
2022-10-01T21:23:06.226Z,40.60
2022-10-01T21:25:48.076Z,40.60
2022-10-01T21:28:32.892Z,40.60
2022-10-01T21:31:44.427Z,40.70
2022-10-01T21:34:18.768Z,40.70
2022-10-01T21:36:58.102Z,40.70
2022-10-01T21:39:39.994Z,40.70
2022-10-01T21:42:25.151Z,40.70
2022-10-01T21:45:03.948Z,40.80
2022-10-01T21:47:53.208Z,40.80
2022-10-01T21:50:54.109Z,40.70
2022-10-01T21:53:46.900Z,40.80
2022-10-01T21:56:36.994Z,40.70
2022-10-01T21:59:26.334Z,40.80
2022-10-01T22:02:29.501Z,40.80
2022-10-01T22:05:24.403Z,40.80
2022-10-01T22:07:59.836Z,40.60
2022-10-01T22:10:49.833Z,40.80
2022-10-01T22:13:25.702Z,40.70
2022-10-01T22:15:58.630Z,40.80
2022-10-01T22:18:39.469Z,40.70
2022-10-01T22:21:19.103Z,40.80
2022-10-01T22:23:53.180Z,40.90
2022-10-01T22:26:24.254Z,41.10
2022-10-01T22:28:55.106Z,41.30
2022-10-01T22:31:28.367Z,41.40
2022-10-01T22:34:07.126Z,41.60
2022-10-01T22:36:46.072Z,41.70
2022-10-01T22:39:25.426Z,41.60
2022-10-01T22:42:10.759Z,41.70
2022-10-01T22:44:40.617Z,41.50
2022-10-01T22:47:33.337Z,41.50
2022-10-01T22:50:09.407Z,41.40
2022-10-01T22:53:01.879Z,41.50
2022-10-01T22:55:39.779Z,41.90
2022-10-01T22:58:22.908Z,41.50
2022-10-01T23:01:17.615Z,41.40
2022-10-01T23:04:15.213Z,41.40
2022-10-01T23:07:00.192Z,41.50
2022-10-01T23:09:53.693Z,41.40
2022-10-01T23:12:35.418Z,41.50
2022-10-01T23:15:49.997Z,41.30
2022-10-01T23:18:36.157Z,41.30
2022-10-01T23:21:09.578Z,41.30
2022-10-01T23:23:39.779Z,41.40
2022-10-01T23:26:25.630Z,41.40
2022-10-01T23:29:04.241Z,41.30
2022-10-01T23:31:52.016Z,41.30
2022-10-01T23:34:30.905Z,41.30
2022-10-01T23:37:09.473Z,41.30
2022-10-01T23:39:39.476Z,41.30
2022-10-01T23:42:38.009Z,41.30
2022-10-01T23:45:35.651Z,41.30
2022-10-01T23:48:15.351Z,41.50
2022-10-01T23:51:03.912Z,41.20
2022-10-01T23:53:46.001Z,41.20
2022-10-01T23:56:50.047Z,41.20
2022-10-01T23:59:39.257Z,41.30
